Time;durP1;ratioP1;P1;durP2;ratioP2;P2;SDS_P1;SDS_P2;PMS_P1;PMS_P2;Temp;Humidity;BMP_temperature;BMP_pressure;BME280_temperature;BME280_humidity;BME280_pressure;Samples;Min_cycle;Max_cycle;Signal;HPM_P1;HPM_P2
2023/01/28 00:01:12;;;;;;;28.52;14.75;;;21.20;56.60;;;;;;5092531;28;20122;-74
2023/01/28 00:03:39;;;;;;;25.27;14.32;;;21.10;56.50;;;;;;5092840;28;20035;-74
2023/01/28 00:06:13;;;;;;;26.70;15.38;;;21.10;56.50;;;;;;5092501;28;20093;-74
2023/01/28 00:08:40;;;;;;;26.58;15.27;;;21.00;56.50;;;;;;5092402;28;20429;-74
2023/01/28 00:11:09;;;;;;;28.65;13.63;;;21.10;56.50;;;;;;5092355;28;20033;-73
2023/01/28 00:13:35;;;;;;;28.77;15.07;;;21.10;56.50;;;;;;5092459;28;20058;-74
2023/01/28 00:16:04;;;;;;;26.25;15.65;;;21.00;56.30;;;;;;5092115;28;20579;-74
2023/01/28 00:18:31;;;;;;;27.00;15.07;;;21.10;56.20;;;;;;5092231;28;20043;-74
2023/01/28 00:21:03;;;;;;;29.35;15.07;;;21.10;56.20;;;;;;5092282;28;20089;-74
2023/01/28 00:23:31;;;;;;;29.67;15.80;;;21.20;56.20;;;;;;5092238;28;20500;-73
2023/01/28 00:25:59;;;;;;;32.58;16.63;;;21.10;56.10;;;;;;5092024;28;20047;-73
2023/01/28 00:28:26;;;;;;;24.52;15.13;;;21.10;56.10;;;;;;5092238;28;20040;-73
2023/01/28 00:30:52;;;;;;;26.38;14.57;;;21.10;56.10;;;;;;5091953;28;20685;-74
2023/01/28 00:33:18;;;;;;;28.75;15.55;;;21.10;56.00;;;;;;5092004;28;20056;-74
2023/01/28 00:35:46;;;;;;;29.42;15.18;;;21.00;55.80;;;;;;5090906;28;20028;-73
2023/01/28 00:38:12;;;;;;;27.08;15.75;;;21.10;55.70;;;;;;5090519;28;20055;-74
2023/01/28 00:40:38;;;;;;;30.58;15.02;;;21.10;55.70;;;;;;5091439;28;20036;-73
2023/01/28 00:43:04;;;;;;;30.65;15.70;;;21.00;55.60;;;;;;5091978;28;20043;-73
2023/01/28 00:45:30;;;;;;;31.15;14.90;;;21.00;55.60;;;;;;5092114;28;20040;-73
2023/01/28 00:47:56;;;;;;;34.45;16.55;;;21.00;55.50;;;;;;5091744;28;20035;-73
2023/01/28 00:50:22;;;;;;;28.02;15.50;;;21.00;55.50;;;;;;5073147;28;20028;-73
2023/01/28 00:52:48;;;;;;;27.65;14.55;;;20.90;55.70;;;;;;5090199;28;20499;-73
2023/01/28 00:55:14;;;;;;;26.80;15.73;;;20.90;55.70;;;;;;5091774;28;20040;-74
2023/01/28 00:57:40;;;;;;;28.92;14.98;;;20.90;55.70;;;;;;5091688;28;20111;-73
2023/01/28 01:00:07;;;;;;;34.38;16.25;;;20.90;55.40;;;;;;5090526;28;20028;-74
2023/01/28 01:02:33;;;;;;;26.15;15.35;;;20.90;55.40;;;;;;5091571;28;20463;-73
2023/01/28 01:04:59;;;;;;;27.60;15.02;;;20.90;55.60;;;;;;5090462;28;20080;-74
2023/01/28 01:07:31;;;;;;;29.67;14.98;;;20.90;55.60;;;;;;5090200;28;20169;-73
2023/01/28 01:10:01;;;;;;;29.70;15.45;;;20.90;55.50;;;;;;5091371;28;20051;-74
2023/01/28 01:12:28;;;;;;;32.67;16.35;;;20.90;55.50;;;;;;5090534;28;20035;-73
2023/01/28 01:14:54;;;;;;;28.77;15.15;;;20.80;55.40;;;;;;5091608;28;20028;-74
2023/01/28 01:17:20;;;;;;;29.98;15.88;;;20.90;55.30;;;;;;5091590;28;20081;-73
2023/01/28 01:19:46;;;;;;;27.83;15.68;;;21.00;55.30;;;;;;5089983;28;20039;-73
2023/01/28 01:22:12;;;;;;;31.73;16.88;;;20.90;55.20;;;;;;5090151;28;20045;-73
2023/01/28 01:24:40;;;;;;;31.70;15.80;;;21.00;55.20;;;;;;5091622;28;20034;-73
2023/01/28 01:27:06;;;;;;;30.58;16.90;;;20.90;55.30;;;;;;5091277;28;20111;-73
2023/01/28 01:29:35;;;;;;;31.15;14.90;;;21.00;54.50;;;;;;5089919;28;20047;-73
2023/01/28 01:32:01;;;;;;;31.67;15.70;;;20.90;55.00;;;;;;5091454;28;20063;-74
2023/01/28 01:34:27;;;;;;;33.35;16.58;;;21.00;54.60;;;;;;5090143;28;20032;-74
2023/01/28 01:36:53;;;;;;;33.15;16.00;;;21.00;54.70;;;;;;5089908;28;20468;-73
2023/01/28 01:39:19;;;;;;;36.10;17.80;;;20.90;54.50;;;;;;5091223;28;20064;-74
2023/01/28 01:41:45;;;;;;;35.33;16.63;;;21.00;54.80;;;;;;5091043;28;20047;-73
2023/01/28 01:44:48;;;;;;;33.30;16.73;;;20.90;54.80;;;;;;5090059;28;20028;-73
2023/01/28 01:47:17;;;;;;;36.33;17.50;;;20.70;55.00;;;;;;5091066;28;20392;-73
2023/01/28 01:49:43;;;;;;;32.22;15.52;;;20.60;55.00;;;;;;5089746;28;20043;-73
2023/01/28 01:52:18;;;;;;;37.38;16.15;;;20.80;55.00;;;;;;5091255;28;20036;-74
2023/01/28 01:54:46;;;;;;;39.92;18.38;;;20.70;55.00;;;;;;5095217;28;20032;-73
2023/01/28 01:57:19;;;;;;;41.38;18.40;;;20.70;54.90;;;;;;5095278;28;20040;-73
2023/01/28 01:59:46;;;;;;;37.55;17.98;;;20.70;55.00;;;;;;5093467;28;20032;-73
2023/01/28 02:02:12;;;;;;;37.65;17.52;;;20.70;55.00;;;;;;5094910;28;20089;-73
2023/01/28 02:04:44;;;;;;;40.95;18.23;;;20.60;55.10;;;;;;5093648;28;20032;-73
2023/01/28 02:07:15;;;;;;;46.47;20.35;;;20.70;54.70;;;;;;5093458;28;20107;-73
2023/01/28 02:09:42;;;;;;;43.63;18.75;;;20.70;54.70;;;;;;5094215;28;20054;-73
2023/01/28 02:12:20;;;;;;;44.35;18.65;;;20.70;54.70;;;;;;5092800;28;20032;-73
2023/01/28 02:14:57;;;;;;;45.15;21.10;;;20.70;54.60;;;;;;5093391;28;20050;-73
2023/01/28 02:17:24;;;;;;;41.45;19.58;;;20.80;54.40;;;;;;5094364;28;20067;-73
2023/01/28 02:19:59;;;;;;;45.42;18.55;;;20.80;54.40;;;;;;5093033;28;20564;-74
2023/01/28 02:22:54;;;;;;;42.55;18.10;;;20.80;54.40;;;;;;5092756;28;20028;-73
2023/01/28 02:25:26;;;;;;;44.50;18.25;;;20.80;54.10;;;;;;5092558;28;20043;-73
2023/01/28 02:27:55;;;;;;;35.38;16.25;;;20.90;54.20;;;;;;5092644;28;20028;-73
2023/01/28 02:30:32;;;;;;;40.60;17.10;;;20.80;53.90;;;;;;5094054;28;20035;-73
2023/01/28 02:33:10;;;;;;;40.33;19.13;;;20.80;54.00;;;;;;5094378;28;20032;-74
2023/01/28 02:36:11;;;;;;;40.95;19.92;;;20.70;54.20;;;;;;5094055;28;20150;-73
2023/01/28 02:38:43;;;;;;;42.97;19.00;;;20.60;54.00;;;;;;5031178;28;20172;-73
2023/01/28 02:41:28;;;;;;;40.63;18.40;;;20.60;54.20;;;;;;5014557;28;20079;-73
2023/01/28 02:43:54;;;;;;;37.70;18.70;;;20.60;54.30;;;;;;5014471;28;20038;-73
2023/01/28 02:49:49;;;;;;;41.85;18.40;;;20.40;54.50;;;;;;5014744;28;20045;-74
2023/01/28 02:55:48;;;;;;;40.63;16.88;;;20.60;54.70;;;;;;5013946;28;20440;-73
2023/01/28 02:58:26;;;;;;;36.00;19.05;;;20.50;54.50;;;;;;5013874;28;20038;-73
2023/01/28 03:01:22;;;;;;;34.88;16.52;;;20.50;54.50;;;;;;5030552;28;20041;-73
2023/01/28 03:04:21;;;;;;;31.92;17.50;;;20.40;54.50;;;;;;5013986;28;20037;-73
2023/01/28 03:06:52;;;;;;;35.20;16.80;;;20.40;54.30;;;;;;4952874;29;20047;-73
2023/01/28 03:09:27;;;;;;;33.50;16.13;;;20.40;54.30;;;;;;4952625;29;20051;-73
2023/01/28 03:38:22;;;;;;;33.08;16.48;;;20.50;53.90;;;;;;5030189;28;20102;-73
2023/01/28 03:40:57;;;;;;;28.25;16.30;;;20.60;53.70;;;;;;5030245;28;20045;-74
2023/01/28 03:43:23;;;;;;;34.55;17.50;;;20.70;53.90;;;;;;5058674;28;20661;-73
2023/01/28 03:45:50;;;;;;;35.78;17.05;;;20.50;53.70;;;;;;5091464;28;20032;-73
2023/01/28 03:48:18;;;;;;;31.13;16.15;;;20.30;53.60;;;;;;5091679;28;20085;-73
2023/01/28 03:50:44;;;;;;;34.15;16.77;;;20.70;53.80;;;;;;5092988;28;20032;-73
2023/01/28 03:53:14;;;;;;;34.70;17.58;;;20.70;53.80;;;;;;5091453;28;20024;-74
2023/01/28 03:55:53;;;;;;;33.85;18.73;;;20.70;53.60;;;;;;5092745;28;20032;-73
2023/01/28 03:58:20;;;;;;;31.73;16.75;;;20.70;53.40;;;;;;5091212;28;20365;-73
2023/01/28 04:00:46;;;;;;;34.22;17.92;;;20.70;53.50;;;;;;5091231;28;20028;-73
2023/01/28 04:03:18;;;;;;;30.90;15.63;;;20.70;53.60;;;;;;5092968;28;20050;-73
2023/01/28 04:05:58;;;;;;;35.90;16.65;;;20.70;53.50;;;;;;5091457;28;20051;-73
2023/01/28 04:08:27;;;;;;;32.83;16.88;;;20.80;53.30;;;;;;5092362;28;20503;-73
2023/01/28 04:11:18;;;;;;;29.60;16.23;;;20.70;53.30;;;;;;5035407;28;20132;-74
2023/01/28 04:13:47;;;;;;;;;;;20.80;53.30;;;;;;5033589;28;20049;-73
2023/01/28 04:16:16;;;;;;;28.58;15.45;;;20.80;53.10;;;;;;5031927;28;19955;-74
2023/01/28 04:18:43;;;;;;;29.60;16.30;;;20.80;53.20;;;;;;5032827;28;20037;-73
2023/01/28 04:21:10;;;;;;;28.85;15.40;;;20.80;53.20;;;;;;5032758;28;20500;-73
2023/01/28 04:23:37;;;;;;;31.40;16.75;;;20.80;53.10;;;;;;4999672;28;20100;-74
2023/01/28 04:26:03;;;;;;;31.40;16.52;;;20.80;53.00;;;;;;5033006;28;20033;-73
2023/01/28 04:28:30;;;;;;;29.25;15.75;;;20.90;53.00;;;;;;5032237;28;20524;-73
2023/01/28 04:30:57;;;;;;;34.22;17.35;;;21.00;53.10;;;;;;5032553;28;20152;-73
2023/01/28 04:33:32;;;;;;;31.58;15.57;;;21.00;53.00;;;;;;5048726;28;20060;-73
2023/01/28 04:36:16;;;;;;;31.35;17.15;;;20.90;52.80;;;;;;5049199;28;20402;-74
2023/01/28 04:39:02;;;;;;;31.27;15.38;;;20.90;53.00;;;;;;5032512;28;20029;-74
2023/01/28 04:41:48;;;;;;;29.67;15.63;;;20.80;52.90;;;;;;4989526;28;20050;-73
2023/01/28 04:44:34;;;;;;;27.23;14.82;;;21.00;53.00;;;;;;4988709;28;20514;-73
2023/01/28 04:47:16;;;;;;;30.85;15.55;;;20.90;52.80;;;;;;4975737;28;20034;-73
2023/01/28 04:50:15;;;;;;;32.00;16.42;;;21.00;52.70;;;;;;4989701;28;20045;-73
2023/01/28 04:52:56;;;;;;;31.52;16.02;;;21.00;52.70;;;;;;4973238;28;20060;-73
2023/01/28 04:55:35;;;;;;;31.42;15.27;;;21.00;52.70;;;;;;4989682;28;20097;-73
2023/01/28 04:58:01;;;;;;;29.80;16.08;;;20.90;52.80;;;;;;4973508;28;20031;-73
2023/01/28 05:00:29;;;;;;;35.13;16.88;;;20.90;52.70;;;;;;4989474;28;20065;-74
2023/01/28 05:02:55;;;;;;;40.40;16.40;;;21.00;52.70;;;;;;4989541;28;20487;-73
2023/01/28 05:05:22;;;;;;;32.97;16.55;;;21.00;52.50;;;;;;4973045;28;20061;-74
2023/01/28 05:08:11;;;;;;;31.55;17.48;;;21.00;52.60;;;;;;4987297;28;20116;-74
2023/01/28 05:10:39;;;;;;;33.13;15.93;;;20.90;52.50;;;;;;4973176;28;20141;-73
2023/01/28 05:13:05;;;;;;;23.42;12.63;;;21.00;52.40;;;;;;4989502;28;20034;-73
2023/01/28 05:15:31;;;;;;;30.63;15.18;;;21.00;53.00;;;;;;4989412;28;20038;-73
2023/01/28 05:17:58;;;;;;;28.90;13.95;;;21.00;52.80;;;;;;4958786;28;20034;-73
2023/01/28 05:20:27;;;;;;;29.70;13.75;;;21.00;52.50;;;;;;4960999;28;20478;-73
2023/01/28 05:22:55;;;;;;;30.15;15.68;;;21.10;52.40;;;;;;4992614;28;20069;-73
2023/01/28 05:25:26;;;;;;;28.95;14.15;;;21.10;51.90;;;;;;5035714;28;20063;-74
2023/01/28 05:27:53;;;;;;;33.13;16.67;;;21.40;55.80;;;;;;5092814;28;20117;-71
2023/01/28 05:30:19;;;;;;;29.83;15.85;;;22.00;58.70;;;;;;5094173;28;20024;-71
2023/01/28 05:32:45;;;;;;;26.13;14.95;;;22.30;62.60;;;;;;5095572;28;20036;-72
2023/01/28 05:35:14;;;;;;;27.15;14.50;;;22.30;56.40;;;;;;5076803;28;20077;-72
2023/01/28 05:37:40;;;;;;;31.33;16.58;;;22.30;54.40;;;;;;5094183;28;20039;-71
2023/01/28 05:40:07;;;;;;;27.15;13.80;;;22.30;52.20;;;;;;5093966;28;20047;-70
2023/01/28 05:42:33;;;;;;;27.63;16.67;;;22.40;50.30;;;;;;5076903;28;20440;-71
2023/01/28 05:45:25;;;;;;;35.78;17.73;;;22.20;48.20;;;;;;5094880;28;20044;-71
2023/01/28 05:48:10;;;;;;;30.42;16.85;;;22.00;47.80;;;;;;5094048;28;20043;-70
2023/01/28 05:50:45;;;;;;;;;;;21.90;48.30;;;;;;5094344;28;20032;-71
2023/01/28 05:53:16;;;;;;;35.95;18.08;;;21.80;49.10;;;;;;5094941;28;19915;-71
2023/01/28 05:55:52;;;;;;;36.78;17.38;;;21.60;49.40;;;;;;5093945;28;20115;-69
2023/01/28 05:58:19;;;;;;;29.45;16.23;;;21.60;50.00;;;;;;5093888;28;20096;-71
2023/01/28 06:00:46;;;;;;;33.33;17.55;;;21.40;50.60;;;;;;5093683;28;20113;-71
2023/01/28 06:03:13;;;;;;;33.97;19.10;;;21.50;50.90;;;;;;5093634;28;20035;-76
2023/01/28 06:05:39;;;;;;;26.63;14.00;;;21.40;52.60;;;;;;5093806;28;20043;-76
2023/01/28 06:08:06;;;;;;;25.55;14.63;;;21.70;55.10;;;;;;5094760;28;20036;-75
2023/01/28 06:10:32;;;;;;;25.40;11.82;;;22.10;55.20;;;;;;5093836;28;20400;-77
2023/01/28 06:12:59;;;;;;;23.58;14.30;;;22.20;55.10;;;;;;5093429;28;20047;-74
2023/01/28 06:15:48;;;;;;;31.00;17.38;;;22.30;54.20;;;;;;5071329;28;20040;-72
2023/01/28 06:18:37;;;;;;;22.83;14.60;;;22.30;54.50;;;;;;5031337;28;20573;-73
2023/01/28 06:21:03;;;;;;;25.50;15.75;;;22.60;54.30;;;;;;5014691;28;20049;-73
2023/01/28 06:23:29;;;;;;;20.92;12.02;;;22.70;56.20;;;;;;5014558;28;20052;-74
2023/01/28 06:25:56;;;;;;;23.23;14.07;;;22.80;57.40;;;;;;5014870;28;20148;-73
2023/01/28 06:28:23;;;;;;;31.77;17.65;;;22.80;58.60;;;;;;5014624;28;20029;-73
2023/01/28 06:30:51;;;;;;;25.30;16.05;;;22.80;57.90;;;;;;5031477;28;20069;-73
2023/01/28 06:33:18;;;;;;;27.70;17.10;;;22.90;59.30;;;;;;5031432;28;20120;-73
2023/01/28 06:35:44;;;;;;;30.33;16.33;;;22.90;58.00;;;;;;5031521;28;20116;-73
2023/01/28 06:38:11;;;;;;;30.67;16.58;;;23.00;57.70;;;;;;5020912;28;20041;-73
2023/01/28 06:40:38;;;;;;;23.33;13.85;;;23.10;61.30;;;;;;5011750;28;20042;-74
2023/01/28 06:43:05;;;;;;;22.60;14.57;;;23.10;59.10;;;;;;5011481;28;20073;-74
2023/01/28 06:45:32;;;;;;;25.85;15.63;;;23.20;59.10;;;;;;4995039;28;20462;-74
2023/01/28 06:47:58;;;;;;;23.55;15.60;;;23.10;59.10;;;;;;5011553;28;20101;-73
2023/01/28 06:50:24;;;;;;;22.08;15.45;;;23.30;57.30;;;;;;5011519;28;20049;-74
2023/01/28 06:52:50;;;;;;;25.60;16.92;;;23.10;57.30;;;;;;5011356;28;20068;-74
2023/01/28 06:55:16;;;;;;;28.55;16.13;;;23.10;58.00;;;;;;5040470;28;20449;-74
2023/01/28 06:57:44;;;;;;;25.17;13.98;;;23.20;56.20;;;;;;5093772;28;20456;-73
2023/01/28 07:00:15;;;;;;;26.92;14.77;;;23.10;53.10;;;;;;5092681;28;20372;-73
2023/01/28 07:02:41;;;;;;;35.22;20.80;;;23.10;52.00;;;;;;5093728;28;20058;-74
2023/01/28 07:05:07;;;;;;;28.52;14.00;;;23.00;52.10;;;;;;5093870;28;20036;-74
2023/01/28 07:07:33;;;;;;;25.77;15.48;;;22.80;53.00;;;;;;5093478;28;20089;-74
2023/01/28 07:09:59;;;;;;;25.10;16.38;;;22.70;55.00;;;;;;5093640;28;20047;-74
2023/01/28 07:12:25;;;;;;;30.15;17.80;;;22.80;55.20;;;;;;5093686;28;20117;-70
2023/01/28 07:14:51;;;;;;;27.40;15.20;;;22.90;56.00;;;;;;5093586;28;20028;-73
2023/01/28 07:17:17;;;;;;;25.13;16.15;;;23.00;44.30;;;;;;5093521;28;20031;-73
2023/01/28 07:19:43;;;;;;;16.98;8.38;;;23.00;45.90;;;;;;5093525;28;20139;-72
2023/01/28 07:22:09;;;;;;;19.02;10.57;;;23.00;52.00;;;;;;5093192;28;20036;-75
2023/01/28 07:24:35;;;;;;;22.30;12.55;;;23.20;52.80;;;;;;5093664;28;20124;-78
2023/01/28 07:27:01;;;;;;;25.38;11.48;;;23.20;52.90;;;;;;5093614;28;20102;-76
2023/01/28 07:29:27;;;;;;;26.13;13.77;;;23.10;52.10;;;;;;5093454;28;20027;-73
2023/01/28 07:31:53;;;;;;;23.75;13.40;;;23.10;51.30;;;;;;5093186;28;20032;-73
2023/01/28 07:34:19;;;;;;;19.80;9.15;;;23.10;52.10;;;;;;5093413;28;20044;-73
2023/01/28 07:36:45;;;;;;;24.00;12.27;;;22.90;52.60;;;;;;5093182;28;20032;-73
2023/01/28 07:39:11;;;;;;;3.47;2.97;;;22.80;52.70;;;;;;5093082;28;20036;-71
2023/01/28 07:41:36;;;;;;;25.65;12.77;;;22.90;54.50;;;;;;5073355;28;20373;-72
2023/01/28 07:44:06;;;;;;;51.25;24.33;;;23.10;53.60;;;;;;5091629;28;20039;-75
2023/01/28 07:46:32;;;;;;;37.28;18.80;;;23.30;51.70;;;;;;5093199;28;20401;-70
2023/01/28 07:48:58;;;;;;;47.63;24.40;;;23.30;51.70;;;;;;5092791;28;20057;-71
2023/01/28 07:51:24;;;;;;;34.75;17.75;;;23.40;53.10;;;;;;5091871;28;20020;-72
2023/01/28 07:53:50;;;;;;;25.92;14.82;;;23.50;49.70;;;;;;5092671;28;20115;-74
2023/01/28 07:56:16;;;;;;;29.45;16.48;;;23.40;49.30;;;;;;5092848;28;20108;-74
2023/01/28 07:58:42;;;;;;;25.70;14.57;;;23.60;47.00;;;;;;5074667;28;20039;-80
2023/01/28 08:01:08;;;;;;;26.27;15.98;;;23.50;41.20;;;;;;5092956;28;20503;-78
2023/01/28 08:03:34;;;;;;;24.67;15.93;;;23.40;43.00;;;;;;5091739;28;20028;-80
2023/01/28 08:06:00;;;;;;;22.25;13.40;;;23.60;45.20;;;;;;5092703;28;20052;-79
2023/01/28 08:08:27;;;;;;;25.52;14.38;;;23.40;44.30;;;;;;5092440;28;20123;-81
2023/01/28 08:10:53;;;;;;;21.40;10.85;;;23.40;47.50;;;;;;5092024;28;20038;-77
2023/01/28 08:13:20;;;;;;;14.10;6.03;;;23.60;61.70;;;;;;5091360;28;20126;-74
2023/01/28 08:15:46;;;;;;;15.02;7.90;;;23.70;65.20;;;;;;5092462;28;20145;-78
2023/01/28 08:18:14;;;;;;;14.52;7.30;;;23.80;64.90;;;;;;5092406;28;20059;-76
2023/01/28 08:20:42;;;;;;;22.92;12.95;;;23.90;65.60;;;;;;5092213;28;20036;-79
2023/01/28 08:23:16;;;;;;;34.42;17.05;;;23.90;61.60;;;;;;5092487;28;20032;-77
2023/01/28 08:25:44;;;;;;;41.55;20.02;;;24.00;49.20;;;;;;5092355;28;20040;-79
2023/01/28 08:28:11;;;;;;;27.30;16.30;;;23.80;44.60;;;;;;5092557;28;20043;-79
2023/01/28 08:30:38;;;;;;;29.70;16.77;;;23.80;46.60;;;;;;5090794;28;20081;-75
2023/01/28 08:33:06;;;;;;;26.10;16.05;;;23.70;41.90;;;;;;5091260;28;20038;-78
2023/01/28 08:35:32;;;;;;;18.45;12.45;;;23.60;40.70;;;;;;5093643;28;20461;-78
2023/01/28 08:38:00;;;;;;;23.42;13.82;;;23.50;41.30;;;;;;5098043;28;20035;-76
2023/01/28 08:40:27;;;;;;;25.05;15.18;;;23.50;40.50;;;;;;5105090;28;20504;-75
2023/01/28 08:42:53;;;;;;;21.80;13.40;;;23.60;41.10;;;;;;5091920;28;20032;-77
2023/01/28 08:45:26;;;;;;;22.52;13.85;;;23.50;41.10;;;;;;5091970;28;20032;-76
2023/01/28 08:48:04;;;;;;;22.95;13.75;;;23.40;40.60;;;;;;5091879;28;20046;-78
2023/01/28 08:50:35;;;;;;;22.58;14.52;;;23.30;42.90;;;;;;5095720;28;20337;-77
2023/01/28 08:53:04;;;;;;;25.23;15.73;;;23.40;41.40;;;;;;5111918;28;20034;-77
2023/01/28 08:55:31;;;;;;;22.08;13.68;;;23.40;41.80;;;;;;5112078;28;20028;-77
2023/01/28 08:58:01;;;;;;;23.30;14.00;;;23.30;43.00;;;;;;5112149;28;20020;-77
2023/01/28 09:00:27;;;;;;;20.92;13.10;;;23.20;42.20;;;;;;5110528;28;20084;-78
2023/01/28 09:02:53;;;;;;;23.90;14.60;;;23.20;43.00;;;;;;5111528;28;20081;-77
2023/01/28 09:05:20;;;;;;;24.92;14.88;;;23.20;45.90;;;;;;5110809;28;20034;-78
2023/01/28 09:07:47;;;;;;;23.10;13.73;;;23.10;42.50;;;;;;5106333;28;20111;-76
2023/01/28 09:10:15;;;;;;;21.90;13.95;;;23.20;41.40;;;;;;5091015;28;20663;-78
2023/01/28 09:12:41;;;;;;;23.58;13.68;;;23.10;50.40;;;;;;5091046;28;20035;-82
2023/01/28 09:15:08;;;;;;;21.92;14.07;;;23.10;42.10;;;;;;5091053;28;20389;-80
2023/01/28 09:17:35;;;;;;;22.85;14.70;;;23.10;39.80;;;;;;5091121;28;20467;-76
2023/01/28 09:20:01;;;;;;;21.10;14.32;;;23.10;41.80;;;;;;5035196;28;20045;-79
2023/01/28 09:22:27;;;;;;;22.35;14.95;;;23.10;39.00;;;;;;5068928;28;20045;-80
2023/01/28 09:24:53;;;;;;;27.27;15.55;;;23.20;39.70;;;;;;5068609;28;20580;-80
2023/01/28 09:27:19;;;;;;;23.83;14.32;;;23.00;38.70;;;;;;5068840;28;20500;-78
2023/01/28 09:29:45;;;;;;;24.80;16.65;;;23.00;39.20;;;;;;5051162;28;20113;-77
2023/01/28 09:32:11;;;;;;;25.50;14.73;;;23.00;42.10;;;;;;5068971;28;20111;-82
2023/01/28 09:34:38;;;;;;;23.10;15.57;;;23.00;41.20;;;;;;5068363;28;20136;-76
2023/01/28 09:37:04;;;;;;;25.52;15.60;;;23.00;41.90;;;;;;5051969;28;20036;-75
2023/01/28 09:39:30;;;;;;;27.63;16.27;;;23.00;38.70;;;;;;5051732;28;20086;-79
2023/01/28 09:42:01;;;;;;;25.20;15.27;;;23.00;39.50;;;;;;5040648;28;20396;-76
2023/01/28 09:44:43;;;;;;;25.33;14.23;;;23.10;40.70;;;;;;5088689;28;20089;-78
2023/01/28 09:47:18;;;;;;;24.90;15.13;;;23.20;46.40;;;;;;5088595;28;20040;-80
2023/01/28 09:49:48;;;;;;;28.05;16.63;;;23.20;48.60;;;;;;5088764;28;20097;-79
2023/01/28 09:52:18;;;;;;;30.10;17.20;;;23.10;44.90;;;;;;5110778;28;20088;-79
2023/01/28 09:54:50;;;;;;;21.38;14.35;;;23.20;45.50;;;;;;5110858;28;20373;-77
2023/01/28 09:57:25;;;;;;;25.40;13.57;;;23.10;47.40;;;;;;5111449;28;20023;-78
2023/01/28 09:59:51;;;;;;;28.35;15.32;;;23.10;43.40;;;;;;5111173;28;20538;-76
2023/01/28 10:02:30;;;;;;;20.60;13.63;;;23.10;41.70;;;;;;5092497;28;20028;-75
2023/01/28 10:05:17;;;;;;;26.20;15.30;;;23.10;41.70;;;;;;5090652;28;20036;-82
2023/01/28 10:07:55;;;;;;;27.00;14.73;;;23.00;40.20;;;;;;5091333;28;20028;-73
2023/01/28 10:10:49;;;;;;;26.40;16.67;;;23.00;42.60;;;;;;5071350;28;20179;-76
2023/01/28 10:13:48;;;;;;;34.75;16.05;;;23.30;40.90;;;;;;5090668;28;20430;-75
2023/01/28 10:16:33;;;;;;;29.23;15.68;;;23.20;46.70;;;;;;5094921;28;20027;-76
2023/01/28 10:19:19;;;;;;;28.02;15.07;;;23.30;43.00;;;;;;5094325;28;20032;-74
2023/01/28 10:22:27;;;;;;;28.30;14.05;;;23.40;45.30;;;;;;5094370;28;20048;-75
2023/01/28 10:25:05;;;;;;;28.52;15.05;;;23.40;50.10;;;;;;4963220;28;20531;-76
2023/01/28 10:27:32;;;;;;;25.05;12.63;;;23.40;51.00;;;;;;5012108;28;20541;-76
2023/01/28 10:30:08;;;;;;;24.95;13.45;;;23.20;51.30;;;;;;5011783;28;20538;-78
2023/01/28 10:32:42;;;;;;;25.98;14.63;;;23.00;52.00;;;;;;5012113;28;20120;-76
2023/01/28 10:35:09;;;;;;;27.85;15.57;;;22.90;53.00;;;;;;4995413;28;20046;-76
2023/01/28 10:37:37;;;;;;;25.58;14.20;;;22.60;52.30;;;;;;5011678;28;20041;-76
2023/01/28 10:40:03;;;;;;;28.17;15.07;;;22.50;52.70;;;;;;5011444;28;20041;-76
2023/01/28 10:42:37;;;;;;;24.00;13.52;;;22.40;54.50;;;;;;5011593;28;20057;-76
2023/01/28 10:45:08;;;;;;;;;;;22.30;54.80;;;;;;5012198;28;20244;-74
2023/01/28 10:47:41;;;;;;;20.33;12.10;;;22.30;54.70;;;;;;5011574;28;19964;-76
2023/01/28 10:50:21;;;;;;;20.40;13.43;;;22.20;55.40;;;;;;5011235;28;20083;-74
2023/01/28 10:53:04;;;;;;;22.25;14.10;;;22.20;50.90;;;;;;5011496;28;20124;-74
2023/01/28 10:55:57;;;;;;;22.38;13.60;;;22.60;49.80;;;;;;5011293;28;20049;-75
2023/01/28 10:58:26;;;;;;;18.83;13.77;;;22.60;48.90;;;;;;5011029;28;20049;-75
2023/01/28 11:00:56;;;;;;;20.60;13.93;;;22.90;48.60;;;;;;5037586;28;20423;-76
2023/01/28 11:03:33;;;;;;;22.20;14.90;;;22.80;48.40;;;;;;5093736;28;20419;-75
2023/01/28 11:06:00;;;;;;;19.95;12.07;;;23.00;48.00;;;;;;5093820;28;20032;-75
2023/01/28 11:08:29;;;;;;;23.73;12.55;;;23.10;52.60;;;;;;5093508;28;20449;-75
2023/01/28 11:10:56;;;;;;;21.95;12.80;;;23.10;52.10;;;;;;5093679;28;20255;-75
2023/01/28 11:13:28;;;;;;;24.33;13.48;;;23.00;53.90;;;;;;5091223;28;20050;-76
2023/01/28 11:16:00;;;;;;;20.95;12.73;;;22.90;54.40;;;;;;5093632;28;20070;-76
2023/01/28 11:18:37;;;;;;;23.70;12.75;;;22.80;54.60;;;;;;5093567;28;20465;-78
2023/01/28 11:21:12;;;;;;;19.00;12.73;;;22.90;50.50;;;;;;5093798;28;20063;-77
2023/01/28 11:23:47;;;;;;;23.25;12.57;;;23.30;58.90;;;;;;5093711;28;20036;-77
2023/01/28 11:26:25;;;;;;;23.23;12.63;;;23.30;56.30;;;;;;5093132;28;20107;-78
2023/01/28 11:28:52;;;;;;;22.35;12.13;;;23.70;62.20;;;;;;5093673;28;20148;-80
2023/01/28 11:31:20;;;;;;;18.05;11.07;;;23.70;49.80;;;;;;5097499;28;20032;-78
2023/01/28 11:33:58;;;;;;;22.23;13.93;;;23.70;50.80;;;;;;5096754;28;20044;-78
2023/01/28 11:36:26;;;;;;;20.98;11.88;;;24.10;59.80;;;;;;5073235;28;20040;-79
2023/01/28 11:39:16;;;;;;;21.00;11.38;;;24.80;60.80;;;;;;5083821;28;20047;-76
2023/01/28 11:41:43;;;;;;;19.20;12.48;;;25.10;62.10;;;;;;5113551;28;20027;-75
2023/01/28 11:44:15;;;;;;;21.33;11.85;;;25.50;59.30;;;;;;5112148;28;20406;-76
2023/01/28 11:47:11;;;;;;;21.08;12.38;;;25.60;58.10;;;;;;5113523;28;20061;-77
2023/01/28 11:49:52;;;;;;;20.33;12.98;;;25.80;60.80;;;;;;5072531;28;20044;-80
2023/01/28 11:52:26;;;;;;;20.58;12.00;;;25.80;53.20;;;;;;5072653;28;20101;-79
2023/01/28 11:55:04;;;;;;;21.23;12.70;;;25.40;52.20;;;;;;5072549;28;20090;-80
2023/01/28 11:57:52;;;;;;;20.38;11.98;;;25.10;52.50;;;;;;5072709;28;20126;-80
2023/01/28 12:00:24;;;;;;;20.98;12.65;;;24.90;53.00;;;;;;5072765;28;20040;-81
2023/01/28 12:03:10;;;;;;;23.33;14.25;;;24.70;53.40;;;;;;5072692;28;20108;-81
2023/01/28 12:05:51;;;;;;;25.98;13.45;;;24.40;52.20;;;;;;5102193;28;20035;-80
2023/01/28 12:08:36;;;;;;;22.63;12.95;;;24.20;53.50;;;;;;5113053;28;20452;-80
2023/01/28 12:15:01;;;;;;;21.77;11.70;;;23.90;54.50;;;;;;5112808;28;20035;-77
2023/01/28 12:18:05;;;;;;;21.67;11.95;;;23.80;54.80;;;;;;5029980;28;20065;-75
2023/01/28 12:21:07;;;;;;;21.40;11.05;;;23.60;53.80;;;;;;5029460;28;20038;-76
2023/01/28 12:24:05;;;;;;;14.77;9.07;;;23.30;53.00;;;;;;4986391;28;20108;-77
2023/01/28 12:26:57;;;;;;;16.80;9.85;;;23.20;56.80;;;;;;4992323;28;20039;-80
2023/01/28 12:29:23;;;;;;;20.70;11.20;;;23.30;56.00;;;;;;4973280;28;20161;-79
2023/01/28 12:32:07;;;;;;;13.60;8.43;;;23.20;56.20;;;;;;4990189;28;20480;-78
2023/01/28 12:34:48;;;;;;;16.83;10.40;;;23.20;55.20;;;;;;4990181;28;20062;-79
2023/01/28 12:37:31;;;;;;;19.05;9.93;;;23.00;57.00;;;;;;4989502;28;20129;-79
2023/01/28 12:40:15;;;;;;;15.75;9.88;;;23.00;57.70;;;;;;4989879;28;20125;-79
2023/01/28 12:43:05;;;;;;;15.10;10.20;;;23.00;57.80;;;;;;4990155;28;20031;-80
2023/01/28 12:45:49;;;;;;;17.52;10.32;;;22.90;58.20;;;;;;4986473;28;20030;-78
2023/01/28 12:48:38;;;;;;;14.18;8.80;;;22.90;59.00;;;;;;4970591;28;20047;-79
2023/01/28 12:51:18;;;;;;;19.55;11.10;;;22.90;57.10;;;;;;4970774;28;20038;-80
2023/01/28 12:53:57;;;;;;;14.15;9.68;;;23.00;58.60;;;;;;5051528;28;20039;-76
2023/01/28 12:56:43;;;;;;;15.55;10.15;;;23.00;58.10;;;;;;5052138;28;20040;-78
2023/01/28 12:59:35;;;;;;;17.30;10.68;;;23.00;57.80;;;;;;5009116;28;20041;-77
2023/01/28 13:02:10;;;;;;;16.30;9.93;;;23.00;58.90;;;;;;4989253;28;20046;-77
2023/01/28 13:04:44;;;;;;;16.45;9.57;;;23.00;59.00;;;;;;4989898;28;20095;-75
2023/01/28 13:07:16;;;;;;;15.90;10.10;;;23.00;57.80;;;;;;4989833;28;20395;-75
2023/01/28 13:10:01;;;;;;;18.00;10.85;;;23.00;59.00;;;;;;4989747;28;20762;-74
2023/01/28 13:12:30;;;;;;;17.55;9.45;;;23.00;58.90;;;;;;4989620;28;20061;-74
2023/01/28 13:14:57;;;;;;;18.55;11.50;;;22.90;59.00;;;;;;4989662;28;20188;-77
2023/01/28 13:17:27;;;;;;;17.48;10.40;;;22.90;58.70;;;;;;4989710;28;20042;-73
2023/01/28 13:19:54;;;;;;;19.75;12.65;;;22.80;57.50;;;;;;4989363;28;20038;-76
2023/01/28 13:22:45;;;;;;;21.50;10.52;;;22.60;59.60;;;;;;4989463;28;20034;-77
2023/01/28 13:25:22;;;;;;;18.10;11.10;;;22.50;62.50;;;;;;4950665;29;20102;-76
2023/01/28 13:27:58;;;;;;;18.75;11.15;;;22.40;60.20;;;;;;4950764;29;20040;-74
2023/01/28 13:30:46;;;;;;;19.67;11.75;;;22.40;63.00;;;;;;4963496;28;20039;-76